createdAt,value
2022-08-27T00:00:00.199Z,12.6
2022-08-27T00:05:00.172Z,12.6
2022-08-27T00:10:00.150Z,12.5
2022-08-27T00:15:00.172Z,12.6
2022-08-27T00:20:00.176Z,12.6
2022-08-27T00:25:00.185Z,12.5
2022-08-27T00:30:00.158Z,12.4
2022-08-27T00:35:00.176Z,12.3
2022-08-27T00:40:00.315Z,12.4
2022-08-27T00:45:00.139Z,12.5
2022-08-27T00:50:00.180Z,12.3
2022-08-27T00:55:00.175Z,12.2
2022-08-27T01:00:00.257Z,12.4
2022-08-27T01:05:00.149Z,12.2
2022-08-27T01:10:00.177Z,12.3
2022-08-27T01:15:00.200Z,12.2
2022-08-27T01:20:00.195Z,12.2
2022-08-27T01:25:00.185Z,12.2
2022-08-27T01:30:00.184Z,12.1
2022-08-27T01:35:00.186Z,12.0
2022-08-27T01:40:00.303Z,12.0
2022-08-27T01:45:00.180Z,12.0
2022-08-27T01:50:00.250Z,11.9
2022-08-27T01:55:00.182Z,11.9
2022-08-27T02:00:00.220Z,11.9
2022-08-27T02:05:00.161Z,12.1
2022-08-27T02:10:00.204Z,11.8
2022-08-27T02:15:00.166Z,12.1
2022-08-27T02:20:00.171Z,11.9
2022-08-27T02:25:00.167Z,11.9
2022-08-27T02:30:00.171Z,11.9
2022-08-27T02:35:00.194Z,11.9
2022-08-27T02:40:00.243Z,11.9
2022-08-27T02:45:00.177Z,11.9
2022-08-27T02:50:00.188Z,11.8
2022-08-27T02:55:00.175Z,11.9
2022-08-27T03:00:00.212Z,11.9
2022-08-27T03:05:00.179Z,11.8
2022-08-27T03:10:00.249Z,11.9
2022-08-27T03:15:00.174Z,11.8
2022-08-27T03:20:00.191Z,11.9
2022-08-27T03:25:00.168Z,12.0
2022-08-27T03:30:03.778Z,12.0
2022-08-27T03:35:00.171Z,12.0
2022-08-27T03:40:00.269Z,12.0
2022-08-27T03:45:00.188Z,12.0
2022-08-27T03:50:00.194Z,11.9
2022-08-27T03:55:00.209Z,11.9
2022-08-27T04:00:00.269Z,11.9
2022-08-27T04:05:00.154Z,11.9
2022-08-27T04:10:00.187Z,12.1
2022-08-27T04:15:00.184Z,12.0
2022-08-27T04:20:08.711Z,12.0
2022-08-27T04:25:00.178Z,12.0
2022-08-27T04:30:00.174Z,11.8
2022-08-27T04:35:00.175Z,11.9
2022-08-27T04:40:00.288Z,11.8
2022-08-27T04:45:00.150Z,11.6
2022-08-27T04:50:00.207Z,11.7
2022-08-27T04:55:00.154Z,11.9
2022-08-27T05:00:00.255Z,11.9
2022-08-27T05:05:00.277Z,11.8
2022-08-27T05:10:00.175Z,11.9
2022-08-27T05:15:00.181Z,11.7
2022-08-27T05:20:00.166Z,11.7
2022-08-27T05:25:00.216Z,11.8
2022-08-27T05:30:00.232Z,11.8
2022-08-27T05:35:00.202Z,12.0
2022-08-27T05:40:00.324Z,12.1
2022-08-27T05:45:00.235Z,11.9
2022-08-27T05:50:00.201Z,12.0
2022-08-27T05:55:00.177Z,12.0
2022-08-27T06:00:00.242Z,12.1
2022-08-27T06:05:00.257Z,12.2
2022-08-27T06:10:00.414Z,12.2
2022-08-27T06:15:00.205Z,12.4
2022-08-27T06:20:00.187Z,12.4
2022-08-27T06:25:00.207Z,12.6
2022-08-27T06:30:00.218Z,12.9
2022-08-27T06:35:00.205Z,12.8
2022-08-27T06:40:00.357Z,12.5
2022-08-27T06:45:00.183Z,12.3
2022-08-27T06:50:00.218Z,12.5
2022-08-27T06:55:00.198Z,12.7
2022-08-27T07:00:00.232Z,12.6
2022-08-27T07:05:00.191Z,12.6
2022-08-27T07:10:00.189Z,12.6
2022-08-27T07:15:00.189Z,12.9
2022-08-27T07:20:00.266Z,12.9
2022-08-27T07:30:00.175Z,12.9
2022-08-27T07:35:00.211Z,13.2
2022-08-27T07:40:00.310Z,13.0
2022-08-27T07:45:00.185Z,12.9
2022-08-27T07:50:00.209Z,12.9
2022-08-27T07:55:00.182Z,12.8
2022-08-27T08:00:00.268Z,12.8
2022-08-27T08:05:00.210Z,12.7
2022-08-27T08:10:00.207Z,12.8
2022-08-27T08:15:00.213Z,11.9
2022-08-27T08:20:15.741Z,12.4
2022-08-27T08:25:00.239Z,12.5
2022-08-27T08:30:00.238Z,11.9
2022-08-27T08:35:00.177Z,12.7
2022-08-27T08:40:00.467Z,13.2
2022-08-27T08:45:00.190Z,12.6
2022-08-27T08:50:00.227Z,12.4
2022-08-27T08:55:00.327Z,13.1
2022-08-27T09:00:00.244Z,12.3
2022-08-27T09:05:00.198Z,12.4
2022-08-27T09:10:00.197Z,12.6
2022-08-27T09:15:00.203Z,12.0
2022-08-27T09:20:00.198Z,11.4
2022-08-27T09:25:00.215Z,11.8
2022-08-27T09:30:00.176Z,12.7
2022-08-27T09:35:00.146Z,13.1
2022-08-27T09:40:00.262Z,12.5
2022-08-27T09:45:00.185Z,12.1
2022-08-27T09:50:00.173Z,12.2
2022-08-27T09:55:00.150Z,12.3
2022-08-27T10:00:00.208Z,12.1
2022-08-27T10:05:00.174Z,12.4
2022-08-27T10:10:00.186Z,12.1
2022-08-27T10:15:00.176Z,12.3
2022-08-27T10:20:00.173Z,11.9
2022-08-27T10:25:00.187Z,11.8
2022-08-27T10:30:00.194Z,12.3
2022-08-27T10:35:00.173Z,12.5
2022-08-27T10:40:00.248Z,12.3
2022-08-27T10:45:00.179Z,12.4
2022-08-27T10:50:00.195Z,12.4
2022-08-27T10:55:00.181Z,12.5
2022-08-27T11:00:00.230Z,12.6
2022-08-27T11:05:00.176Z,12.6
2022-08-27T11:10:00.213Z,12.9
2022-08-27T11:15:00.203Z,12.4
2022-08-27T11:20:01.801Z,12.7
2022-08-27T11:25:00.201Z,13.1
2022-08-27T11:30:00.595Z,13.3
2022-08-27T11:35:00.207Z,13.2
2022-08-27T11:40:00.315Z,13.7
2022-08-27T11:45:00.191Z,13.5
2022-08-27T11:50:00.192Z,13.5
2022-08-27T11:55:00.306Z,13.3
2022-08-27T12:00:00.235Z,13.0
2022-08-27T12:05:00.181Z,12.9
2022-08-27T12:10:00.237Z,12.9
2022-08-27T12:15:00.341Z,12.7
2022-08-27T12:20:00.465Z,12.9
2022-08-27T12:25:00.170Z,12.7
2022-08-27T12:30:00.415Z,12.9
2022-08-27T12:35:00.750Z,13.3
2022-08-27T12:40:00.348Z,12.8
2022-08-27T12:45:00.195Z,12.8
2022-08-27T12:50:00.247Z,12.3
2022-08-27T12:55:00.262Z,12.5
2022-08-27T13:00:00.209Z,12.3
2022-08-27T13:05:01.295Z,12.7
2022-08-27T13:10:00.279Z,12.8
2022-08-27T13:15:00.196Z,12.8
2022-08-27T13:20:00.165Z,12.6
2022-08-27T13:25:00.269Z,12.9
2022-08-27T13:30:00.214Z,13.3
2022-08-27T13:35:00.185Z,12.6
2022-08-27T13:40:00.313Z,13.1
2022-08-27T13:45:00.188Z,12.6
2022-08-27T13:50:00.275Z,13.1
2022-08-27T13:55:00.207Z,12.5
2022-08-27T14:00:00.275Z,12.1
2022-08-27T14:05:00.206Z,12.8
2022-08-27T14:10:00.284Z,12.3
2022-08-27T14:15:00.432Z,12.0
2022-08-27T14:20:00.366Z,12.3
2022-08-27T14:25:00.317Z,12.4
2022-08-27T14:30:00.259Z,12.9
2022-08-27T14:35:00.764Z,12.5
2022-08-27T14:40:00.438Z,12.5
2022-08-27T14:45:00.488Z,12.2
2022-08-27T14:50:00.327Z,12.3
2022-08-27T14:55:00.270Z,11.9
2022-08-27T15:00:00.462Z,11.7
2022-08-27T15:05:00.341Z,12.0
2022-08-27T15:10:01.418Z,12.2
2022-08-27T15:15:00.207Z,12.0
2022-08-27T15:20:00.416Z,12.5
2022-08-27T15:25:00.239Z,12.0
2022-08-27T15:30:00.352Z,12.2
2022-08-27T15:35:00.211Z,12.1
2022-08-27T15:40:00.448Z,12.1
2022-08-27T15:45:00.206Z,11.7
2022-08-27T15:50:00.216Z,11.7
2022-08-27T15:55:00.176Z,11.7
2022-08-27T16:00:00.205Z,12.0
2022-08-27T16:05:00.189Z,11.8
2022-08-27T16:10:00.200Z,12.1
2022-08-27T16:15:00.196Z,12.0
2022-08-27T16:20:00.322Z,11.7
2022-08-27T16:25:00.185Z,11.6
2022-08-27T16:30:00.193Z,11.1
2022-08-27T16:35:00.181Z,11.4
2022-08-27T16:40:00.293Z,11.7
2022-08-27T16:45:00.173Z,11.8
2022-08-27T16:50:00.468Z,11.9
2022-08-27T16:55:00.226Z,12.1
2022-08-27T17:00:00.261Z,12.1
2022-08-27T17:05:17.423Z,12.2
2022-08-27T17:10:05.112Z,12.1
2022-08-27T17:15:00.205Z,12.0
2022-08-27T17:20:00.227Z,12.1
2022-08-27T17:25:00.193Z,12.0
2022-08-27T17:30:00.207Z,12.1
2022-08-27T17:35:05.146Z,12.0
2022-08-27T17:45:00.286Z,11.9
2022-08-27T17:50:00.183Z,11.7
2022-08-27T17:55:00.192Z,11.7
2022-08-27T18:00:04.614Z,11.5
2022-08-27T18:05:00.241Z,11.5
2022-08-27T18:10:00.186Z,11.4
2022-08-27T18:15:00.209Z,11.5
2022-08-27T18:20:00.256Z,11.5
2022-08-27T18:25:00.189Z,11.5
2022-08-27T18:30:00.235Z,11.3
2022-08-27T18:35:00.198Z,11.4
2022-08-27T18:40:00.356Z,11.4
2022-08-27T18:45:05.101Z,11.5
2022-08-27T18:50:00.178Z,11.6
2022-08-27T18:55:00.198Z,11.4
2022-08-27T19:00:00.234Z,11.3
2022-08-27T19:05:00.171Z,11.1
2022-08-27T19:10:00.184Z,11.0
2022-08-27T19:15:00.211Z,10.9
2022-08-27T19:20:00.187Z,11.0
2022-08-27T19:25:00.443Z,11.2
2022-08-27T19:30:00.156Z,11.3
2022-08-27T19:35:00.364Z,11.4
2022-08-27T19:40:00.287Z,11.2
2022-08-27T19:45:00.184Z,11.4
2022-08-27T19:50:00.177Z,11.5
2022-08-27T20:00:00.290Z,11.5
2022-08-27T20:05:17.363Z,11.5
2022-08-27T20:10:01.435Z,11.3
2022-08-27T20:15:00.172Z,11.4
2022-08-27T20:20:00.208Z,11.3
2022-08-27T20:25:00.189Z,11.3
2022-08-27T20:30:00.176Z,11.2
2022-08-27T20:35:00.174Z,11.2
2022-08-27T20:40:00.299Z,11.1
2022-08-27T20:45:01.578Z,10.9
2022-08-27T20:50:00.178Z,10.8
2022-08-27T20:55:00.193Z,11.0
2022-08-27T21:00:00.205Z,10.9
2022-08-27T21:05:00.150Z,10.9
2022-08-27T21:10:00.205Z,10.8
2022-08-27T21:15:00.180Z,10.9
2022-08-27T21:20:00.266Z,10.8
2022-08-27T21:25:00.176Z,10.8
2022-08-27T21:30:00.173Z,10.7
2022-08-27T21:35:00.185Z,11.0
2022-08-27T21:40:00.284Z,10.9
2022-08-27T21:45:00.172Z,11.0
2022-08-27T21:50:00.186Z,11.0
2022-08-27T21:55:00.173Z,11.0
2022-08-27T22:00:00.250Z,11.1
2022-08-27T22:05:00.190Z,10.9
2022-08-27T22:10:00.194Z,11.0
2022-08-27T22:15:00.193Z,10.9
2022-08-27T22:20:00.186Z,10.9
2022-08-27T22:25:00.155Z,10.9
2022-08-27T22:30:00.173Z,10.9
2022-08-27T22:35:00.167Z,10.9
2022-08-27T22:40:00.235Z,10.8
2022-08-27T22:45:00.160Z,10.8
2022-08-27T22:50:00.181Z,10.9
2022-08-27T22:55:00.188Z,10.9
2022-08-27T23:00:00.197Z,10.8
2022-08-27T23:05:02.511Z,11.0
2022-08-27T23:10:00.172Z,10.9
2022-08-27T23:15:00.162Z,10.8
2022-08-27T23:20:00.181Z,10.9
2022-08-27T23:25:00.174Z,10.7
2022-08-27T23:30:00.188Z,10.7
2022-08-27T23:35:00.177Z,10.7
2022-08-27T23:40:00.270Z,10.8
2022-08-27T23:45:00.185Z,10.6
2022-08-27T23:50:00.165Z,10.6
2022-08-27T23:55:00.187Z,10.6
